Time;durP1;ratioP1;P1;durP2;ratioP2;P2;SDS_P1;SDS_P2;PMS_P1;PMS_P2;Temp;Humidity;BMP_temperature;BMP_pressure;BME280_temperature;BME280_humidity;BME280_pressure;Samples;Min_cycle;Max_cycle;Signal;HPM_P1;HPM_P2
2023/09/03 00:02:00;;;;;;;37.45;22.35;;;11.50;99.90;;;-144.05;92.87;56993.25;5017094;28;20038;-80
2023/09/03 00:04:26;;;;;;;28.10;19.58;;;11.70;99.90;;;-144.05;92.23;56978.41;5017510;28;20057;-81
2023/09/03 00:06:52;;;;;;;28.70;18.67;;;16.20;99.90;;;-144.05;91.96;56974.16;5032254;28;20030;-79
2023/09/03 00:09:18;;;;;;;30.10;18.83;;;16.00;99.90;;;-144.05;92.19;56965.66;5016663;28;20091;-81
2023/09/03 00:11:44;;;;;;;27.13;18.85;;;11.40;99.90;;;-144.05;92.16;56952.91;5016368;28;20517;-80
2023/09/03 00:14:10;;;;;;;30.90;18.30;;;;;;;-144.05;91.86;56965.66;5023458;28;20509;-80
2023/09/03 00:16:36;;;;;;;29.70;18.88;;;10.80;99.90;;;-144.05;92.00;56946.53;5035873;28;20041;-80
2023/09/03 00:19:02;;;;;;;45.10;26.50;;;;;;;-144.05;92.21;56965.66;5035977;28;20033;-80
2023/09/03 00:21:28;;;;;;;32.97;21.20;;;10.60;99.90;;;-144.05;92.19;57006.00;5035896;28;20145;-80
2023/09/03 00:23:54;;;;;;;40.72;23.40;;;;;;;-144.05;92.67;56974.16;5035877;28;20041;-79
2023/09/03 00:26:24;;;;;;;33.38;22.40;;;15.80;99.90;;;-144.05;92.71;56997.50;5035501;28;20453;-80
2023/09/03 00:28:50;;;;;;;25.10;17.58;;;15.90;99.90;;;-144.05;91.88;57006.00;5016293;28;20441;-79
2023/09/03 00:31:16;;;;;;;22.55;14.98;;;11.30;99.90;;;-144.05;91.86;56974.16;5013982;28;20030;-81
2023/09/03 00:33:42;;;;;;;29.85;18.27;;;11.40;99.90;;;-144.05;92.06;56976.28;5014471;28;20059;-81
2023/09/03 00:36:13;;;;;;;30.98;20.30;;;11.20;99.90;;;-144.05;92.19;56967.78;5013963;28;20041;-79
2023/09/03 00:38:40;;;;;;;37.55;22.58;;;14.10;99.90;;;-144.05;92.39;56989.00;5014299;28;20038;-80
2023/09/03 00:41:06;;;;;;;30.35;20.58;;;15.80;99.90;;;-144.05;92.26;56976.28;5015328;28;20050;-79
2023/09/03 00:43:33;;;;;;;30.95;20.80;;;15.80;99.90;;;-144.05;92.34;56969.91;5015607;28;20388;-78
2023/09/03 00:46:05;;;;;;;28.98;19.58;;;14.10;99.90;;;-144.05;92.21;56969.91;5030155;28;20033;-81
2023/09/03 00:48:32;;;;;;;31.60;20.58;;;10.80;99.90;;;-144.05;92.48;56978.41;5014925;28;20030;-80
2023/09/03 00:51:08;;;;;;;35.55;22.75;;;11.30;99.90;;;-144.05;92.52;56993.25;5013753;28;20061;-79
2023/09/03 00:53:39;;;;;;;32.72;21.13;;;10.30;99.90;;;-144.05;92.28;56978.41;5014926;28;20033;-79
2023/09/03 00:56:08;;;;;;;37.17;22.30;;;13.90;99.90;;;-144.05;92.34;57006.00;5014938;28;20038;-79
2023/09/03 00:58:36;;;;;;;37.35;22.73;;;13.80;99.90;;;-144.05;92.47;56967.78;5014406;28;20038;-79
2023/09/03 01:01:04;;;;;;;44.35;26.80;;;16.60;99.90;;;-144.05;92.67;56976.28;5014319;28;20026;-80
2023/09/03 01:03:31;;;;;;;42.67;24.98;;;9.90;99.90;;;-144.05;92.64;56978.41;5014486;28;20033;-80
2023/09/03 01:05:57;;;;;;;35.15;21.73;;;16.70;99.90;;;-144.05;92.56;56980.53;5017323;28;20109;-79
2023/09/03 01:08:26;;;;;;;30.98;18.70;;;13.80;99.90;;;-144.05;92.38;56991.13;5017224;28;20061;-80
2023/09/03 01:11:49;;;;;;;45.20;28.00;;;17.30;99.90;;;-144.05;92.80;56976.28;5014703;28;20034;-78
2023/09/03 01:14:41;;;;;;;39.13;22.23;;;;;;;-144.05;92.89;56938.03;5013392;28;20046;-80
2023/09/03 01:17:45;;;;;;;29.50;18.38;;;13.70;99.90;;;-144.05;92.67;56967.78;5014479;28;20576;-80
2023/09/03 01:20:28;;;;;;;30.13;18.92;;;10.10;99.90;;;-144.05;92.72;56986.91;5013688;28;20038;-79
2023/09/03 01:23:21;;;;;;;26.30;16.63;;;13.50;99.90;;;-144.05;92.59;57006.00;5030392;28;20056;-78
2023/09/03 01:26:52;;;;;;;26.70;17.90;;;13.50;99.90;;;-144.05;92.95;56995.38;5032567;28;20029;-78
2023/09/03 01:29:20;;;;;;;43.58;25.92;;;;;;;-144.05;93.22;56978.41;5032217;28;20025;-78
2023/09/03 01:31:49;;;;;;;40.13;24.17;;;13.70;99.90;;;-144.05;93.14;56993.25;5032394;28;20025;-80
2023/09/03 01:34:17;;;;;;;36.30;22.33;;;13.70;99.90;;;-144.05;93.15;56986.91;5032225;28;20124;-79
2023/09/03 01:36:45;;;;;;;30.25;19.38;;;13.60;99.90;;;-144.05;92.92;56980.53;5032349;28;20099;-79
2023/09/03 01:39:12;;;;;;;37.10;21.02;;;13.40;99.90;;;-144.05;92.80;57001.75;5032890;28;20036;-79
2023/09/03 01:41:38;;;;;;;26.70;17.80;;;16.10;99.90;;;-144.05;92.42;56980.53;5033186;28;20404;-80
2023/09/03 01:44:08;;;;;;;30.10;20.60;;;15.80;99.90;;;-144.05;92.55;56982.66;5033052;28;20036;-79
2023/09/03 01:46:48;;;;;;;53.20;30.13;;;15.30;99.90;;;-144.05;92.68;56965.66;5032818;28;20087;-78
2023/09/03 01:49:55;;;;;;;50.78;29.33;;;10.60;99.90;;;-144.05;92.75;56963.53;5032942;28;20104;-79
2023/09/03 01:52:37;;;;;;;35.75;22.95;;;;;;;-144.05;92.21;56950.78;5032429;28;20025;-78
2023/09/03 01:55:11;;;;;;;35.17;22.15;;;15.60;99.90;;;-144.05;92.08;56978.41;5031051;28;20040;-80
2023/09/03 01:57:50;;;;;;;37.05;22.23;;;15.90;99.90;;;-144.05;92.29;56965.66;5031096;28;20040;-78
2023/09/03 02:00:18;;;;;;;38.28;23.30;;;10.70;99.90;;;-144.05;92.30;56976.28;5032283;28;20469;-79
2023/09/03 02:02:48;;;;;;;33.95;21.65;;;10.60;99.90;;;-144.05;92.36;56980.53;5016372;28;20056;-80
2023/09/03 02:05:14;;;;;;;24.63;17.77;;;15.30;99.90;;;-144.05;92.04;56980.53;5018965;28;20034;-79
2023/09/03 02:07:41;;;;;;;26.73;15.68;;;;;;;-144.05;92.18;56950.78;5034455;28;20030;-79
2023/09/03 02:10:08;;;;;;;27.77;16.65;;;15.50;99.90;;;-144.05;92.29;56967.78;5018829;28;20030;-80
2023/09/03 02:12:34;;;;;;;35.38;20.15;;;15.60;99.90;;;-144.05;92.39;56989.00;5019143;28;20061;-78
2023/09/03 02:15:00;;;;;;;22.88;15.77;;;;;;;-144.05;92.62;56959.28;5019000;28;20036;-77
2023/09/03 02:17:26;;;;;;;36.13;19.42;;;;;;;-144.05;92.41;56989.00;5019480;28;20037;-79
2023/09/03 02:19:54;;;;;;;34.55;20.17;;;16.10;99.90;;;-144.05;92.49;56997.50;5019256;28;20445;-78
2023/09/03 02:22:20;;;;;;;32.75;20.50;;;15.70;99.90;;;-144.05;92.46;56978.41;5019115;28;20080;-77
2023/09/03 02:24:46;;;;;;;28.27;18.27;;;10.00;99.90;;;-144.05;92.57;56993.25;5017649;28;20096;-78
2023/09/03 02:27:12;;;;;;;40.38;23.80;;;15.50;99.90;;;-144.05;92.52;56978.41;5017651;28;20487;-79
2023/09/03 02:29:39;;;;;;;38.50;25.13;;;15.50;99.90;;;-144.05;92.24;56963.53;5018805;28;20061;-79
2023/09/03 02:32:08;;;;;;;30.15;20.42;;;15.40;99.90;;;-144.05;92.17;56982.66;5017786;28;20048;-79
2023/09/03 02:34:35;;;;;;;37.13;23.25;;;10.20;99.90;;;-144.05;92.36;56993.25;5018655;28;20433;-79
2023/09/03 02:37:02;;;;;;;32.80;20.23;;;15.60;99.90;;;-144.05;92.34;56986.91;5018921;28;20412;-79
2023/09/03 02:39:28;;;;;;;55.35;29.15;;;;;;;-144.05;92.46;56959.28;5033203;28;20026;-81
2023/09/03 02:41:54;;;;;;;43.30;25.15;;;15.80;99.90;;;-144.05;92.67;56976.28;5016931;28;20068;-79
2023/09/03 02:44:20;;;;;;;34.13;21.45;;;15.90;99.90;;;-144.05;92.29;56957.16;5018179;28;20540;-80
2023/09/03 02:46:46;;;;;;;32.47;19.45;;;15.40;99.90;;;-144.05;92.17;56982.66;5018346;28;20045;-79
2023/09/03 02:49:12;;;;;;;28.33;17.42;;;15.50;99.90;;;-144.05;92.16;56972.03;5031009;28;20118;-79
2023/09/03 02:51:38;;;;;;;32.38;20.20;;;15.60;99.90;;;-144.05;92.29;56991.13;5036367;28;20478;-78
2023/09/03 02:54:04;;;;;;;27.70;17.75;;;9.90;99.90;;;-144.05;92.32;56980.53;5037747;28;20100;-79
2023/09/03 02:56:31;;;;;;;26.58;17.60;;;15.60;99.90;;;-144.05;92.23;56963.53;5052895;28;20067;-78
2023/09/03 02:58:56;;;;;;;25.25;18.50;;;15.10;99.90;;;-144.05;92.15;56993.25;5037481;28;20033;-77
2023/09/03 03:01:23;;;;;;;32.42;21.13;;;;;;;-144.05;92.08;56955.03;5037752;28;20029;-78
2023/09/03 03:03:49;;;;;;;34.58;19.85;;;9.80;99.90;;;-144.05;92.44;56972.03;5036258;28;20021;-78
2023/09/03 03:06:16;;;;;;;34.90;22.13;;;15.60;99.90;;;-144.05;92.26;56999.63;5036632;28;20159;-78
2023/09/03 03:08:42;;;;;;;33.75;20.35;;;9.30;99.90;;;-144.05;92.40;56942.28;5037964;28;20186;-79
2023/09/03 03:11:17;;;;;;;38.60;22.30;;;12.70;99.90;;;-144.05;92.62;56978.41;5037734;28;20025;-80
2023/09/03 03:13:50;;;;;;;35.80;20.15;;;15.80;99.90;;;-144.05;92.58;56978.41;5035481;28;20124;-79
2023/09/03 03:16:16;;;;;;;34.40;21.50;;;8.50;99.90;;;-144.05;92.26;56989.00;5034446;28;20381;-79
2023/09/03 03:18:45;;;;;;;30.73;18.85;;;12.90;99.90;;;-144.05;92.64;56995.38;5034618;28;20388;-79
2023/09/03 03:21:19;;;;;;;30.10;19.10;;;15.80;99.90;;;-144.05;93.34;56978.41;5034496;28;20028;-78
2023/09/03 03:23:53;;;;;;;31.08;17.75;;;8.70;99.90;;;-144.05;92.74;56986.91;5034548;28;20031;-79
2023/09/03 03:26:20;;;;;;;35.38;20.90;;;;;;;-144.05;92.72;56976.28;5034423;28;20036;-80
2023/09/03 03:28:46;;;;;;;30.02;19.55;;;15.70;99.90;;;-144.05;92.67;56995.38;5034162;28;20472;-78
2023/09/03 03:31:19;;;;;;;27.42;17.02;;;12.60;99.90;;;-144.05;92.47;56984.78;5034209;28;20037;-79
2023/09/03 03:33:47;;;;;;;31.23;17.95;;;9.40;99.90;;;-144.05;92.53;56982.66;5034587;28;20100;-79
2023/09/03 03:36:17;;;;;;;28.35;17.33;;;15.80;99.90;;;-144.05;92.80;56965.66;5034283;28;20109;-79
2023/09/03 03:38:44;;;;;;;27.17;17.05;;;;;;;-144.05;92.68;56969.91;5034353;28;20080;-77
2023/09/03 03:41:19;;;;;;;31.15;18.52;;;9.10;99.90;;;-144.05;92.84;56961.41;5034620;28;20079;-78
2023/09/03 03:43:49;;;;;;;31.48;17.50;;;9.50;99.90;;;-144.05;93.09;56967.78;5049638;28;20030;-79
2023/09/03 03:46:19;;;;;;;29.50;16.85;;;12.80;99.90;;;-144.05;92.90;56967.78;5029325;28;20493;-80
2023/09/03 03:48:47;;;;;;;31.85;18.58;;;15.70;99.90;;;-144.05;93.02;56969.91;5014035;28;20433;-81
2023/09/03 03:51:14;;;;;;;27.27;17.52;;;;;;;-144.05;92.91;56965.66;5014130;28;20025;-79
2023/09/03 03:53:41;;;;;;;27.13;16.45;;;15.70;99.90;;;-144.05;92.81;56978.41;5031360;28;20029;-80
2023/09/03 03:56:11;;;;;;;39.25;21.27;;;9.40;99.90;;;-144.05;92.69;56989.00;5049156;28;20037;-78
2023/09/03 03:58:40;;;;;;;31.75;19.45;;;15.70;99.90;;;-144.05;92.82;56963.53;5033714;28;20029;-78
2023/09/03 04:01:19;;;;;;;38.15;21.90;;;16.30;99.90;;;-144.05;92.61;56969.91;5035082;28;20057;-78
2023/09/03 04:03:49;;;;;;;32.58;21.02;;;9.40;99.90;;;-144.05;92.34;56986.91;5042433;28;20021;-80
2023/09/03 04:06:15;;;;;;;33.33;20.60;;;10.10;99.90;;;-144.05;92.47;56972.03;5035658;28;20047;-78
2023/09/03 04:08:44;;;;;;;28.55;17.45;;;;;;;-144.05;92.47;56969.91;5035320;28;20104;-80
2023/09/03 04:11:20;;;;;;;28.70;18.10;;;15.70;99.90;;;-144.05;92.62;56980.53;5049642;28;20034;-80
2023/09/03 04:13:48;;;;;;;22.83;14.23;;;;;;;-144.05;92.41;57001.75;5034028;28;20079;-80
2023/09/03 04:16:20;;;;;;;33.05;19.05;;;10.10;99.90;;;-144.05;92.77;56959.28;5034737;28;20029;-80
2023/09/03 04:18:46;;;;;;;37.65;21.95;;;15.90;99.90;;;-144.05;92.63;56978.41;5034690;28;20476;-78
2023/09/03 04:21:13;;;;;;;31.77;18.30;;;;;;;-144.05;92.81;56978.41;5034660;28;20393;-80
2023/09/03 04:23:39;;;;;;;28.75;17.48;;;;;;;-144.05;92.54;56989.00;5034570;28;20021;-79
2023/09/03 04:26:05;;;;;;;27.48;15.48;;;9.70;99.90;;;-144.05;92.66;56959.28;5033844;28;20044;-77
2023/09/03 04:28:32;;;;;;;29.33;16.35;;;;;;;-144.05;92.70;57003.88;5033701;28;20022;-78
2023/09/03 04:31:04;;;;;;;33.78;18.30;;;10.00;99.90;;;-144.05;92.86;56993.25;5033364;28;20109;-79
2023/09/03 04:33:30;;;;;;;30.25;17.50;;;10.00;99.90;;;-144.05;92.94;56961.41;5034511;28;20386;-80
2023/09/03 04:36:01;;;;;;;45.45;21.38;;;15.10;99.90;;;-144.05;93.07;56972.03;5034087;28;20381;-80
2023/09/03 04:38:28;;;;;;;42.67;19.45;;;15.60;99.90;;;-144.05;92.77;56986.91;5033771;28;20114;-79
2023/09/03 04:41:04;;;;;;;31.30;16.55;;;8.60;99.90;;;-144.05;92.95;57006.00;5033469;28;20513;-80
2023/09/03 04:43:32;;;;;;;34.28;18.13;;;;;;;-144.05;93.24;56974.16;5033724;28;20026;-79
2023/09/03 04:45:58;;;;;;;41.47;20.05;;;;;;;-144.05;93.13;56984.78;5034088;28;20042;-79
2023/09/03 04:48:25;;;;;;;38.72;19.63;;;;;;;-144.05;93.01;56997.50;5033517;28;20021;-80
2023/09/03 04:50:50;;;;;;;44.15;23.38;;;9.90;99.90;;;-144.05;92.79;56986.91;5033149;28;20511;-79
2023/09/03 04:53:17;;;;;;;41.13;20.80;;;;;;;-144.05;93.04;56984.78;5032269;28;20060;-81
2023/09/03 04:55:43;;;;;;;37.30;20.38;;;15.30;99.90;;;-144.05;92.96;56980.53;5033455;28;20075;-79
2023/09/03 04:58:09;;;;;;;42.92;22.48;;;;;;;-144.05;93.23;56963.53;5048425;28;20033;-77
2023/09/03 05:00:35;;;;;;;50.05;27.27;;;15.60;99.90;;;-144.05;93.21;56967.78;5032960;28;20075;-81
2023/09/03 05:03:03;;;;;;;47.08;26.08;;;15.50;99.90;;;-144.05;93.28;56980.53;5033305;28;20026;-81
2023/09/03 05:05:29;;;;;;;59.83;29.05;;;15.20;99.90;;;-144.05;93.05;56972.03;5033091;28;20021;-80
2023/09/03 05:07:55;;;;;;;40.53;23.35;;;;;;;-144.05;92.96;56957.16;5048431;28;20036;-79
2023/09/03 05:10:22;;;;;;;37.20;22.75;;;;;;;-144.05;92.94;56967.78;5032517;28;20048;-81
2023/09/03 05:12:47;;;;;;;43.63;26.52;;;15.90;99.90;;;-144.05;92.81;56976.28;5033560;28;20543;-80
2023/09/03 05:15:14;;;;;;;41.40;24.45;;;10.10;99.90;;;-144.05;92.74;56984.78;5033191;28;20228;-79
2023/09/03 05:17:40;;;;;;;55.03;32.08;;;;;;;-144.05;93.14;56950.78;5031710;28;20445;-79
2023/09/03 05:20:11;;;;;;;51.67;28.63;;;15.60;99.90;;;-144.05;93.20;56986.91;5031311;28;20060;-79
2023/09/03 05:22:38;;;;;;;38.63;23.80;;;15.40;99.90;;;-144.05;93.06;56969.91;5033315;28;20026;-80
2023/09/03 05:25:05;;;;;;;44.00;26.05;;;10.90;99.90;;;-144.05;93.30;56986.91;5032887;28;20029;-81
2023/09/03 05:27:32;;;;;;;49.58;27.73;;;;;;;-144.05;93.03;56978.41;5031865;28;20120;-80
2023/09/03 05:29:58;;;;;;;41.58;27.70;;;15.80;99.90;;;-144.05;93.14;56982.66;5033637;28;20531;-80
2023/09/03 05:32:24;;;;;;;46.53;27.95;;;15.60;99.90;;;-144.05;93.00;56952.91;5032616;28;20025;-78
2023/09/03 05:34:51;;;;;;;62.40;33.40;;;;;;;-144.05;93.14;56989.00;5033876;28;20051;-79
2023/09/03 05:37:17;;;;;;;40.35;28.00;;;11.50;99.90;;;-144.05;93.18;56993.25;5032947;28;20030;-80
2023/09/03 05:39:43;;;;;;;32.40;23.33;;;11.40;99.90;;;-144.05;92.98;56965.66;5033180;28;20075;-81
2023/09/03 05:42:08;;;;;;;41.25;28.73;;;11.10;99.90;;;-144.05;93.04;56972.03;5031903;28;20025;-81
2023/09/03 05:44:34;;;;;;;53.63;31.70;;;15.60;99.90;;;-144.05;92.92;56993.25;5033452;28;20052;-81
2023/09/03 05:47:01;;;;;;;49.88;29.77;;;;;;;-144.05;92.89;56991.13;5034022;28;20045;-80
2023/09/03 05:49:26;;;;;;;67.43;31.02;;;15.20;99.90;;;-144.05;92.88;56989.00;5048579;28;20025;-82
2023/09/03 05:51:53;;;;;;;42.28;29.83;;;;;;;-144.05;93.05;56976.28;5033412;28;20025;-81
2023/09/03 05:54:18;;;;;;;32.58;23.92;;;16.20;99.90;;;-144.05;93.05;56972.03;5033856;28;20515;-80
2023/09/03 05:56:44;;;;;;;36.47;24.80;;;15.60;99.90;;;-144.05;92.87;56997.50;5034903;28;20041;-80
2023/09/03 05:59:11;;;;;;;51.50;29.98;;;15.70;99.90;;;-144.05;92.62;56963.53;5042717;28;20029;-78
2023/09/03 06:01:38;;;;;;;42.30;27.35;;;11.50;99.90;;;-144.05;92.49;57012.38;5045474;28;20025;-82
2023/09/03 06:04:09;;;;;;;33.33;25.83;;;11.60;99.90;;;-144.05;92.85;56974.16;5045443;28;20032;-79
2023/09/03 06:06:39;;;;;;;33.05;23.40;;;11.50;99.90;;;-144.05;92.54;56952.91;5046211;28;20025;-81
2023/09/03 06:09:06;;;;;;;31.05;23.13;;;16.10;99.90;;;-144.05;92.52;56986.91;5045481;28;20128;-80
2023/09/03 06:11:33;;;;;;;37.13;25.98;;;15.60;99.90;;;-144.05;92.78;56989.00;5033033;28;20123;-79
2023/09/03 06:14:00;;;;;;;44.80;31.17;;;15.60;99.90;;;-144.05;92.29;56999.63;5032225;28;20147;-79
2023/09/03 06:16:25;;;;;;;51.58;31.25;;;16.10;99.90;;;-144.05;92.13;56972.03;5032155;28;20053;-79
2023/09/03 06:18:53;;;;;;;35.88;26.52;;;14.30;99.90;;;-144.05;92.43;56950.78;5046910;28;20553;-79
2023/09/03 06:21:19;;;;;;;34.15;25.05;;;;;;;-144.05;92.44;56955.03;5031760;28;20087;-78
2023/09/03 06:23:46;;;;;;;34.15;24.27;;;12.10;99.90;;;-144.05;92.38;56972.03;5030648;28;20026;-80
2023/09/03 06:26:13;;;;;;;40.08;26.33;;;15.70;99.90;;;-144.05;92.34;56982.66;5031609;28;20068;-79
2023/09/03 06:28:39;;;;;;;32.10;22.90;;;15.60;99.90;;;-144.05;92.17;56991.13;5029948;28;20544;-80
2023/09/03 06:31:05;;;;;;;38.40;27.63;;;15.80;99.90;;;-144.05;92.14;56976.28;5031400;28;20179;-80
2023/09/03 06:33:31;;;;;;;56.22;30.02;;;16.00;99.90;;;-144.05;92.25;56978.41;5032859;28;20393;-80
2023/09/03 06:35:57;;;;;;;44.58;31.25;;;15.60;99.90;;;-144.05;91.81;56980.53;5032128;28;20024;-79
2023/09/03 06:38:22;;;;;;;42.92;26.95;;;16.10;99.90;;;-144.05;92.14;56961.41;5030266;28;20033;-80
2023/09/03 06:40:49;;;;;;;44.97;30.13;;;16.20;99.90;;;-144.05;92.07;56991.13;5032463;28;20112;-81
2023/09/03 06:43:16;;;;;;;42.35;29.20;;;15.80;99.90;;;-144.05;91.84;56976.28;5032929;28;20501;-78
2023/09/03 06:45:42;;;;;;;48.92;32.60;;;11.90;99.90;;;-144.05;91.95;57006.00;5032736;28;20029;-80
2023/09/03 06:48:08;;;;;;;56.97;34.55;;;12.40;99.90;;;-144.05;91.96;56986.91;5048210;28;20554;-82
2023/09/03 06:50:34;;;;;;;39.05;28.90;;;16.10;99.90;;;-144.05;91.95;56952.91;5051352;28;20038;-81
2023/09/03 06:53:00;;;;;;;29.42;22.27;;;12.50;99.90;;;-144.05;91.86;56982.66;5037290;28;20033;-80
2023/09/03 06:55:26;;;;;;;41.53;25.27;;;16.20;99.90;;;-144.05;91.68;56984.78;5037007;28;20029;-80
2023/09/03 06:57:52;;;;;;;52.35;34.05;;;16.10;99.90;;;-144.05;91.61;56976.28;5038228;28;20033;-80
2023/09/03 07:00:18;;;;;;;49.67;32.50;;;12.40;99.90;;;-144.05;91.48;56995.38;5037476;28;20480;-79
2023/09/03 07:02:44;;;;;;;59.38;36.25;;;12.20;99.90;;;-144.05;91.43;56980.53;5038410;28;20022;-79
2023/09/03 07:05:10;;;;;;;61.58;35.45;;;16.30;99.90;;;-144.05;91.53;56989.00;5038096;28;20037;-80
2023/09/03 07:07:36;;;;;;;55.10;32.58;;;;;;;-144.05;91.42;56967.78;5037990;28;20022;-82
2023/09/03 07:10:02;;;;;;;57.83;32.30;;;16.30;99.90;;;-144.05;91.42;56980.53;5037664;28;20041;-82
2023/09/03 07:12:28;;;;;;;61.10;38.75;;;16.20;99.90;;;-144.05;91.00;56976.28;5036205;28;20021;-82
2023/09/03 07:14:54;;;;;;;52.97;32.67;;;16.50;99.90;;;-144.05;91.40;57006.00;5038199;28;20045;-81
2023/09/03 07:17:19;;;;;;;54.60;33.67;;;12.30;99.90;;;-144.05;90.90;56993.25;5038447;28;20048;-80
2023/09/03 07:19:45;;;;;;;63.97;38.08;;;16.20;99.90;;;-144.05;90.79;56976.28;5037500;28;20036;-80
2023/09/03 07:22:11;;;;;;;56.05;33.70;;;16.60;99.90;;;-144.05;90.98;56972.03;5039447;28;20061;-80
2023/09/03 07:24:37;;;;;;;56.15;34.03;;;16.00;99.90;;;-144.05;90.89;56959.28;5038358;28;20507;-83
2023/09/03 07:27:04;;;;;;;56.58;32.58;;;12.10;99.90;;;-144.05;90.83;56997.50;5053333;28;20029;-79
2023/09/03 07:29:30;;;;;;;70.20;39.42;;;16.80;99.90;;;-144.05;91.04;57003.88;5037253;28;20034;-83
2023/09/03 07:31:56;;;;;;;60.50;36.03;;;;;;;-144.05;90.82;56978.41;5036618;28;20037;-81
2023/09/03 07:34:22;;;;;;;63.88;37.88;;;;;;;-144.05;90.69;57006.00;5036770;28;20481;-80
2023/09/03 07:36:48;;;;;;;60.08;35.30;;;11.70;99.90;;;-144.05;90.71;56993.25;5036742;28;20041;-82
2023/09/03 07:39:14;;;;;;;50.85;29.75;;;;;;;-144.05;91.19;56982.66;5036527;28;20026;-80
2023/09/03 07:41:40;;;;;;;60.10;35.47;;;16.50;99.90;;;-144.05;90.31;56976.28;5031544;28;20401;-78
2023/09/03 07:44:08;;;;;;;63.67;38.08;;;16.10;99.90;;;-144.05;90.44;56984.78;5014644;28;20034;-79
2023/09/03 07:46:34;;;;;;;54.70;33.72;;;16.40;99.90;;;-144.05;90.23;56997.50;5031704;28;20113;-78
2023/09/03 07:49:00;;;;;;;58.13;35.63;;;16.30;99.90;;;-144.05;89.98;56993.25;5034534;28;20484;-81
2023/09/03 07:51:26;;;;;;;58.00;35.70;;;12.80;99.90;;;-144.05;90.24;56976.28;5035213;28;20021;-80
2023/09/03 07:53:52;;;;;;;63.13;38.15;;;16.40;99.90;;;-144.05;89.97;56976.28;5036681;28;20504;-80
2023/09/03 07:56:20;;;;;;;65.65;38.33;;;;;;;-144.05;90.11;56984.78;5036050;28;20515;-80
2023/09/03 07:58:46;;;;;;;56.85;33.75;;;16.20;99.90;;;-144.05;90.07;56963.53;5035915;28;20088;-79
2023/09/03 08:01:15;;;;;;;45.88;29.17;;;12.80;99.90;;;-144.05;89.97;56986.91;5034358;28;20451;-82
2023/09/03 08:03:43;;;;;;;48.22;30.30;;;16.90;99.90;;;-144.05;90.02;56978.41;5036849;28;20036;-80
2023/09/03 08:06:10;;;;;;;56.33;36.10;;;13.00;99.90;;;-144.05;89.38;56986.91;5037369;28;20028;-80
2023/09/03 08:08:38;;;;;;;48.33;33.13;;;17.10;99.90;;;-144.05;88.91;56995.38;5036421;28;20436;-78
2023/09/03 08:11:04;;;;;;;53.88;34.42;;;12.80;99.90;;;-144.05;89.15;56961.41;5036504;28;20428;-79
2023/09/03 08:13:30;;;;;;;52.97;32.65;;;17.10;99.90;;;-144.05;89.21;56982.66;5037706;28;20036;-81
2023/09/03 08:15:56;;;;;;;57.42;34.60;;;17.60;99.90;;;-144.05;88.33;56995.38;5038195;28;20083;-82
2023/09/03 08:18:23;;;;;;;52.92;36.45;;;17.40;99.90;;;-144.05;87.58;56984.78;5037793;28;20120;-85
2023/09/03 08:20:52;;;;;;;44.13;29.50;;;16.30;99.90;;;-144.05;87.73;56976.28;5052685;28;20127;-84
2023/09/03 08:23:19;;;;;;;49.80;34.75;;;17.40;99.90;;;-144.05;87.01;56965.66;5040543;28;20037;-86
2023/09/03 08:25:46;;;;;;;43.22;31.58;;;17.60;99.90;;;-144.05;86.42;56980.53;5036994;28;20041;-82
2023/09/03 08:28:12;;;;;;;47.33;34.35;;;;;;;-144.05;85.46;56989.00;5040075;28;20025;-85
2023/09/03 08:30:39;;;;;;;46.35;32.35;;;;;;;-144.05;85.14;56959.28;5055392;28;20029;-82
2023/09/03 08:33:05;;;;;;;44.00;30.33;;;17.70;99.90;;;-144.05;84.81;56997.50;5038945;28;20025;-81
2023/09/03 08:35:31;;;;;;;40.85;29.65;;;14.00;99.90;;;-144.05;85.10;56982.66;5039782;28;20041;-80
2023/09/03 08:37:57;;;;;;;39.13;28.45;;;;;;;-144.05;84.79;56986.91;5037428;28;20030;-83
2023/09/03 08:40:26;;;;;;;48.75;33.03;;;16.60;99.90;;;-144.05;84.17;57006.00;5055487;28;20097;-82
2023/09/03 08:42:54;;;;;;;46.35;33.50;;;17.80;99.90;;;-144.05;84.45;56967.78;5039377;28;20492;-83
2023/09/03 08:45:25;;;;;;;32.17;22.90;;;13.90;99.90;;;-144.05;84.49;56999.63;5038819;28;20029;-87
2023/09/03 08:47:53;;;;;;;34.63;24.73;;;17.90;99.90;;;-144.05;84.35;56991.13;5037458;28;20037;-84
2023/09/03 08:50:23;;;;;;;39.28;28.13;;;18.40;99.90;;;-144.05;84.14;56976.28;5034812;28;20033;-80
2023/09/03 08:52:52;;;;;;;40.63;30.35;;;18.40;99.90;;;-144.05;84.24;56984.78;5035383;28;20071;-80
2023/09/03 08:55:19;;;;;;;36.55;26.58;;;18.40;99.90;;;-144.05;84.04;56980.53;5035517;28;20030;-80
2023/09/03 08:57:45;;;;;;;39.55;27.92;;;;;;;-144.05;83.64;56978.41;5035976;28;20475;-86
2023/09/03 09:00:12;;;;;;;38.60;28.27;;;18.30;99.90;;;-144.05;82.57;57006.00;5035413;28;20044;-83
2023/09/03 09:02:38;;;;;;;40.75;28.92;;;;;;;-144.05;82.07;56997.50;5035141;28;20052;-79
2023/09/03 09:05:09;;;;;;;37.83;28.30;;;15.00;99.90;;;-144.05;81.08;56980.53;5033934;28;20033;-82
2023/09/03 09:07:35;;;;;;;37.60;27.08;;;;;;;-144.05;78.50;57006.00;5033813;28;20029;-81
2023/09/03 09:10:16;;;;;;;35.08;26.35;;;17.90;99.90;;;-144.05;77.38;56997.50;5033520;28;20146;-80
2023/09/03 09:13:06;;;;;;;30.13;22.20;;;;;;;-144.05;78.28;57006.00;5033661;28;20025;-80
2023/09/03 09:15:37;;;;;;;35.58;26.17;;;18.00;99.90;;;-144.05;77.53;57003.88;5035345;28;20021;-82
2023/09/03 09:18:09;;;;;;;34.90;24.80;;;18.40;99.90;;;-144.05;76.17;57008.13;5035419;28;20032;-81
2023/09/03 09:20:39;;;;;;;31.45;24.73;;;18.20;99.90;;;-144.05;74.96;57014.50;5034004;28;20479;-81
2023/09/03 09:23:07;;;;;;;31.13;24.15;;;;;;;-144.05;73.82;57010.25;5035282;28;20031;-81
2023/09/03 09:25:35;;;;;;;32.15;24.17;;;19.10;99.90;;;-144.05;73.38;57029.38;5051212;28;20036;-81
2023/09/03 09:28:12;;;;;;;27.25;22.33;;;19.80;99.90;;;-144.05;70.67;57023.00;5034924;28;20029;-81
2023/09/03 09:30:58;;;;;;;27.13;22.45;;;20.10;99.90;;;-144.05;69.29;57023.00;5051265;28;20116;-81
2023/09/03 09:33:26;;;;;;;24.55;20.83;;;18.20;99.90;;;-144.05;67.11;56999.63;5035738;28;20034;-79
2023/09/03 09:35:52;;;;;;;24.23;20.80;;;22.20;99.90;;;-144.05;66.28;57052.75;5035600;28;20049;-83
2023/09/03 09:38:18;;;;;;;22.95;18.98;;;22.20;99.90;;;-144.05;65.23;57033.63;5033498;28;20451;-80
2023/09/03 09:40:44;;;;;;;26.73;21.92;;;20.90;99.90;;;-144.05;62.39;57048.50;5034650;28;20026;-78
2023/09/03 09:43:11;;;;;;;27.85;22.40;;;;;;;-144.05;62.78;57035.75;5035099;28;20026;-80
2023/09/03 09:45:50;;;;;;;23.80;18.77;;;22.10;99.90;;;-144.05;62.96;57082.47;5032841;28;20052;-79
2023/09/03 09:48:17;;;;;;;21.30;16.92;;;;;;;-144.05;62.05;57033.63;5034374;28;20022;-82
2023/09/03 09:50:48;;;;;;;20.52;17.00;;;21.50;99.90;;;-144.05;61.05;57069.72;5050409;28;20022;-79
2023/09/03 09:53:23;;;;;;;20.02;16.50;;;19.20;99.90;;;-144.05;61.46;57061.22;5035667;28;20081;-80
2023/09/03 09:56:07;;;;;;;22.27;17.77;;;21.90;99.90;;;-144.05;60.63;57067.59;5030158;28;20037;-80
2023/09/03 09:58:40;;;;;;;19.30;15.82;;;23.60;99.90;;;-144.05;59.53;57090.97;5015167;28;20125;-81
2023/09/03 10:01:08;;;;;;;23.17;19.67;;;23.80;99.90;;;-144.05;56.15;57093.09;5029971;28;20430;-82
2023/09/03 10:03:49;;;;;;;22.80;18.85;;;22.70;99.90;;;-144.05;56.32;57084.59;5023180;28;20053;-81
2023/09/03 10:06:22;;;;;;;23.95;18.67;;;20.10;99.90;;;-144.05;56.03;57095.22;5035092;28;20017;-79
2023/09/03 10:08:54;;;;;;;23.70;19.80;;;19.70;99.90;;;-144.05;55.79;57076.09;5035262;28;20060;-82
2023/09/03 10:11:20;;;;;;;25.30;20.85;;;19.70;99.90;;;-144.05;58.59;57059.09;5051776;28;20034;-80
2023/09/03 10:13:48;;;;;;;19.25;15.95;;;23.00;99.90;;;-144.05;58.31;57059.09;5036532;28;20052;-82